This is the latest recevied weather packets stored in our database for station/object LU8FJH-13. If no packets are shown the sender has not sent any weather packets the latest 10 day(s).
| Time | Temp. | Humidity | Pressure | Rain* | Wind** | Luminosity | Snow |
|---|---|---|---|---|---|---|---|
| 1777933139 | 19.44° C | 55% | 1009.1 hPa | 0 mm | - | - | - |
| 1777932599 | 19.44° C | 54% | 1008.9 hPa | 0 mm | - | - | - |
| 1777932059 | 20° C | 53% | 1008.9 hPa | 0 mm | - | - | - |
| 1777931519 | 20° C | 52% | 1008.8 hPa | 0 mm | - | - | - |
| 1777930979 | 20° C | 52% | 1008.7 hPa | 0 mm | - | - | - |
| 1777930439 | 20.56° C | 52% | 1008.7 hPa | 0 mm | - | - | - |
| 1777929899 | 20.56° C | 51% | 1008.8 hPa | 0 mm | - | - | - |
| 1777929359 | 21.11° C | 49% | 1009 hPa | 0 mm | - | - | - |
| 1777928819 | 21.11° C | 49% | 1009 hPa | 0 mm | - | - | - |
| 1777928279 | 21.67° C | 49% | 1009 hPa | 0 mm | - | - | - |
| 1777927739 | 21.67° C | 49% | 1009 hPa | 0 mm | - | - | - |
| 1777927202 | 22.22° C | 47% | 1008.9 hPa | 0 mm | - | - | - |
| 1777926659 | 22.22° C | 46% | 1008.8 hPa | 0 mm | - | - | - |
| 1777926119 | 22.22° C | 44% | 1008.8 hPa | 0 mm | - | - | - |
| 1777925579 | 22.78° C | 43% | 1008.6 hPa | 0 mm | - | - | - |
| 1777925039 | 22.78° C | 42% | 1008.9 hPa | 0 mm | - | - | - |
| 1777924498 | 23.89° C | 39% | 1008.7 hPa | 0 mm | - | - | - |
| 1777923959 | 25.56° C | 35% | 1009 hPa | 0 mm | - | - | - |
| 1777923419 | 26.11° C | 33% | 1008.8 hPa | 0 mm | - | - | - |
| 1777922878 | 26.11° C | 32% | 1009 hPa | 0 mm | - | - | - |
| 1777922339 | 26.11° C | 31% | 1009.1 hPa | 0 mm | - | - | - |
| 1777921799 | 25.56° C | 33% | 1009.3 hPa | 0 mm | - | - | - |
| 1777921259 | 26.11° C | 32% | 1009.2 hPa | 0 mm | - | - | - |
| 1777920719 | 26.11° C | 32% | 1009.3 hPa | 0 mm | - | - | - |
| 1777920178 | 25.56° C | 32% | 1009.2 hPa | 0 mm | - | - | - |
* Rain latest hour (hover to see other rain measurements)
** Current wind speed in m/s (hover to see current wind gust speed)